KOAK/OAK METAR and TAF weather

Enter ICAO airport designator
Station Type Date Time Source
KOAK METAR 2020/08/14 01:53 UTC NOAA

KOAK 140153Z 31013KT 10SM FEW100 FEW150 BKN200 26/12 A2990 RMK AO2 SLP126 T02610117


Station Type Date Time Source
KOAK Decoded METAR 2020/08/14 01:53 UTC NOAA

METRO OAKLAND INTERNATIONAL AIRPORT , CA, United States (KOAK) 37-43N 122-14W 26M
Aug 13, 2020 - 09:53 PM EDT / 2020.08.14 0153 UTC
Wind: from the NW (310 degrees) at 15 MPH (13 KT):0
Visibility: 10 mile(s):0
Sky conditions: mostly cloudy
Temperature: 79.0 F (26.1 C)
Dew Point: 53.1 F (11.7 C)
Relative Humidity: 40%
Pressure (altimeter): 29.9 in. Hg (1012 hPa)
ob: KOAK 140153Z 31013KT 10SM FEW100 FEW150 BKN200 26/12 A2990 RMK AO2 SLP126 T02610117
cycle: 2

Station Type Date Time Source
KOAK TAF 2020/08/13 18:24 UTC NOAA

TAF KOAK 131721Z 1318/1424 27006KT P6SM FEW200
FM132100 30011KT P6SM FEW100 SCT200
FM140400 29007KT P6SM SCT100
FM140700 VRB04KT P6SM FEW100 SCT150
FM142000 30012KT P6SM SCT200

Example: see airport list